createdAt,value
2022-11-10T09:22:48.716Z,1.80
2022-11-10T09:25:16.865Z,0.85
2022-11-10T09:27:45.203Z,0.90
2022-11-10T09:30:17.668Z,1.98
2022-11-10T09:32:47.199Z,1.40
2022-11-10T09:35:15.219Z,1.50
2022-11-10T09:37:43.442Z,1.08
2022-11-10T09:40:18.685Z,1.20
2022-11-10T09:42:49.025Z,1.15
2022-11-10T09:45:23.754Z,1.30
2022-11-10T09:47:59.241Z,0.77
2022-11-10T09:50:38.505Z,1.13
2022-11-10T09:53:11.208Z,1.05
2022-11-10T09:55:45.621Z,2.30
2022-11-10T09:58:14.380Z,0.73
2022-11-10T10:00:47.501Z,0.93
2022-11-10T10:03:24.484Z,2.25
2022-11-10T10:06:05.899Z,1.35
2022-11-10T10:08:44.840Z,1.45
2022-11-10T10:11:22.440Z,1.02
2022-11-10T10:14:10.837Z,0.95
2022-11-10T10:16:45.507Z,0.88
2022-11-10T10:19:22.388Z,0.93
2022-11-10T10:22:08.519Z,0.90
2022-11-10T10:24:39.525Z,1.02
2022-11-10T10:27:13.471Z,0.50
2022-11-10T10:29:45.384Z,0.70
2022-11-10T10:32:15.139Z,0.70
2022-11-10T10:34:44.443Z,1.33
2022-11-10T10:37:24.288Z,0.88
2022-11-10T10:39:55.247Z,1.30
2022-11-10T10:42:33.378Z,0.80
2022-11-10T10:45:15.298Z,0.77
2022-11-10T10:47:44.047Z,0.52
2022-11-10T10:50:23.725Z,1.33
2022-11-10T10:53:09.886Z,0.60
2022-11-10T10:55:38.360Z,1.48
2022-11-10T10:58:21.701Z,1.38
2022-11-10T11:00:52.813Z,1.00
2022-11-10T11:03:27.500Z,0.88
2022-11-10T11:06:06.630Z,1.05
2022-11-10T11:08:35.876Z,1.60
2022-11-10T11:11:12.548Z,1.33
2022-11-10T11:13:41.988Z,0.80
2022-11-10T11:16:12.545Z,1.15
2022-11-10T11:18:41.663Z,1.25
2022-11-10T11:21:19.210Z,0.70
2022-11-10T11:24:03.805Z,0.45
2022-11-10T11:26:43.658Z,0.70
2022-11-10T11:29:29.390Z,1.02
2022-11-10T11:32:10.875Z,0.65
2022-11-10T11:34:49.043Z,0.40
2022-11-10T11:37:22.451Z,0.10
2022-11-10T11:40:05.969Z,0.70
2022-11-10T11:42:46.819Z,0.50
2022-11-10T11:45:23.873Z,0.77
2022-11-10T11:48:06.278Z,0.60
2022-11-10T11:50:41.416Z,0.70
2022-11-10T11:53:21.443Z,0.65
2022-11-10T11:56:05.902Z,0.77
2022-11-10T11:58:44.776Z,0.95
2022-11-10T12:01:39.198Z,0.95
2022-11-10T12:04:38.241Z,0.85
2022-11-10T12:07:19.503Z,0.28
2022-11-10T12:09:50.578Z,0.70
2022-11-10T12:12:31.253Z,0.47
2022-11-10T12:15:08.605Z,0.50
2022-11-10T12:17:48.048Z,0.95
2022-11-10T12:20:36.268Z,0.50
2022-11-10T12:23:12.788Z,0.17
2022-11-10T12:25:48.778Z,0.85
2022-11-10T12:28:22.422Z,0.90
2022-11-10T12:31:01.464Z,0.30
2022-11-10T12:33:39.632Z,0.30
2022-11-10T12:36:13.042Z,0.43
2022-11-10T12:38:59.553Z,0.28
2022-11-10T12:41:34.273Z,0.55
2022-11-10T12:44:09.685Z,0.30
2022-11-10T12:46:37.925Z,0.15
2022-11-10T12:49:17.926Z,0.60
2022-11-10T12:51:54.538Z,0.20
2022-11-10T12:54:23.653Z,0.77
2022-11-10T12:56:54.754Z,0.20
2022-11-10T12:59:30.234Z,0.50
2022-11-10T13:02:06.936Z,0.30
2022-11-10T13:04:36.542Z,0.25
2022-11-10T13:07:12.854Z,0.35
2022-11-10T13:09:44.736Z,0.10
2022-11-10T13:12:19.948Z,0.00
2022-11-10T13:14:49.304Z,0.22
2022-11-10T13:17:55.611Z,0.17
2022-11-10T13:20:55.331Z,0.10
2022-11-10T13:23:25.577Z,0.00
2022-11-10T13:25:56.503Z,0.20
2022-11-10T13:29:07.490Z,0.73
2022-11-10T13:31:51.734Z,0.13
2022-11-10T13:34:31.393Z,0.30
2022-11-10T13:37:01.811Z,0.43
2022-11-10T13:39:32.758Z,0.10
2022-11-10T13:42:18.623Z,0.47
2022-11-10T13:44:47.863Z,0.10
2022-11-10T13:47:42.372Z,0.10
2022-11-10T13:50:27.935Z,0.93
2022-11-10T13:53:12.691Z,0.15
2022-11-10T13:56:05.595Z,0.90
2022-11-10T13:58:35.371Z,0.35
2022-11-10T14:01:28.140Z,0.10
2022-11-10T14:04:03.939Z,0.20
2022-11-10T14:06:43.483Z,0.50
2022-11-10T14:09:24.481Z,0.40
2022-11-10T14:11:56.485Z,0.47
2022-11-10T14:14:30.271Z,0.25
2022-11-10T14:16:58.727Z,0.50
2022-11-10T14:19:40.900Z,0.00
2022-11-10T14:22:21.853Z,0.43
2022-11-10T14:24:57.527Z,0.45
2022-11-10T14:27:27.783Z,0.03
2022-11-10T14:30:11.063Z,0.32
2022-11-10T14:32:39.306Z,0.35
2022-11-10T14:35:18.347Z,0.20
2022-11-10T14:37:46.468Z,0.45
2022-11-10T14:40:19.926Z,0.50
2022-11-10T14:42:48.428Z,0.10
2022-11-10T14:45:18.661Z,0.13
2022-11-10T14:47:54.105Z,0.45
2022-11-10T14:50:24.751Z,0.20
2022-11-10T14:52:56.389Z,0.20
2022-11-10T14:55:31.774Z,0.10
2022-11-10T14:58:05.167Z,0.28
2022-11-10T15:00:37.797Z,0.08
2022-11-10T15:03:08.018Z,0.30
2022-11-10T15:05:36.627Z,0.20
2022-11-10T15:08:05.664Z,0.30
2022-11-10T15:10:48.554Z,0.30
2022-11-10T15:13:23.051Z,0.20
2022-11-10T15:15:53.657Z,0.20
2022-11-10T15:18:31.713Z,0.32
2022-11-10T15:21:03.076Z,0.20
2022-11-10T15:23:35.737Z,0.08
2022-11-10T15:26:06.468Z,0.15
2022-11-10T15:28:36.682Z,0.10
2022-11-10T15:31:07.413Z,0.45
2022-11-10T15:33:38.390Z,0.05
2022-11-10T15:36:27.808Z,0.13
2022-11-10T15:39:03.986Z,0.28
2022-11-10T15:41:35.030Z,0.45
2022-11-10T15:44:21.237Z,0.40
2022-11-10T15:46:53.854Z,0.35
2022-11-10T15:49:25.298Z,0.10
2022-11-10T15:51:57.321Z,0.30
2022-11-10T15:54:28.053Z,0.00
2022-11-10T15:56:57.683Z,0.20
2022-11-10T15:59:25.900Z,0.30
2022-11-10T16:01:54.349Z,0.10
2022-11-10T16:04:22.546Z,0.38
2022-11-10T16:06:50.685Z,0.25
2022-11-10T16:09:18.741Z,0.73
2022-11-10T16:11:47.193Z,1.45
2022-11-10T16:14:18.690Z,0.68
2022-11-10T16:16:46.798Z,0.30
2022-11-10T16:19:14.857Z,0.43
2022-11-10T16:21:43.235Z,0.30
2022-11-10T16:24:11.361Z,0.95
2022-11-10T16:26:39.551Z,0.98
2022-11-10T16:29:13.729Z,1.00
2022-11-10T16:31:43.628Z,0.65
2022-11-10T16:34:14.807Z,1.50
2022-11-10T16:36:46.300Z,1.85
2022-11-10T16:39:16.640Z,1.10
2022-11-10T16:41:44.876Z,1.25
2022-11-10T16:44:14.219Z,0.68
2022-11-10T16:46:45.695Z,0.10
2022-11-10T16:49:25.883Z,0.55
2022-11-10T16:51:53.989Z,0.60
2022-11-10T16:54:22.061Z,0.10
2022-11-10T16:56:50.335Z,0.15
2022-11-10T16:59:18.569Z,0.15
2022-11-10T17:01:52.725Z,0.43
2022-11-10T17:04:22.314Z,0.35
2022-11-10T17:06:50.452Z,0.00
2022-11-10T17:09:23.112Z,0.30
2022-11-10T17:11:51.143Z,0.10
2022-11-10T17:14:19.238Z,0.08
2022-11-10T17:16:48.534Z,0.35
2022-11-10T17:19:20.179Z,0.10
2022-11-10T17:21:51.672Z,0.32
2022-11-10T17:24:19.983Z,0.00
2022-11-10T17:26:48.648Z,0.10
2022-11-10T17:29:21.357Z,0.13
2022-11-10T17:31:50.974Z,0.20
2022-11-10T17:34:19.038Z,0.00
2022-11-10T17:36:50.886Z,0.32
2022-11-10T17:39:19.476Z,0.50
2022-11-10T17:41:48.638Z,0.00
2022-11-10T17:44:17.684Z,0.10
2022-11-10T17:46:46.057Z,0.10
2022-11-10T17:49:14.207Z,0.22
2022-11-10T17:51:42.592Z,0.43
2022-11-10T17:54:15.128Z,0.17
2022-11-10T17:56:43.375Z,0.63
2022-11-10T17:59:11.504Z,0.65
2022-11-10T18:01:39.757Z,0.17
2022-11-10T18:04:07.812Z,0.15
2022-11-10T18:06:35.900Z,0.00
2022-11-10T18:09:04.160Z,0.20
2022-11-10T18:11:33.606Z,0.00
2022-11-10T18:14:02.957Z,0.10
2022-11-10T18:16:31.487Z,0.80
2022-11-10T18:19:00.000Z,0.22
2022-11-10T18:21:29.719Z,0.10
2022-11-10T18:23:58.076Z,0.32
2022-11-10T18:26:26.265Z,0.10
2022-11-10T18:28:56.045Z,1.48
2022-11-10T18:31:24.464Z,1.20
2022-11-10T18:33:54.618Z,0.93
2022-11-10T18:36:23.102Z,0.47
2022-11-10T18:38:51.139Z,0.93
2022-11-10T18:41:36.490Z,0.00
2022-11-10T18:44:06.397Z,0.38
2022-11-10T18:46:34.499Z,0.15
2022-11-10T18:49:02.648Z,1.00
2022-11-10T18:51:32.178Z,0.40
2022-11-10T18:54:01.120Z,0.22
2022-11-10T18:56:29.482Z,0.00
2022-11-10T18:58:57.562Z,0.30
2022-11-10T19:01:27.129Z,0.63
2022-11-10T19:03:55.815Z,0.98
2022-11-10T19:06:23.928Z,0.28
2022-11-10T19:08:51.949Z,0.75
2022-11-10T19:11:20.841Z,0.20
2022-11-10T19:13:50.048Z,0.20
2022-11-10T19:16:19.560Z,1.05
2022-11-10T19:18:49.006Z,0.45
2022-11-10T19:21:19.426Z,0.75
2022-11-10T19:23:48.282Z,1.55
2022-11-10T19:26:22.421Z,0.52
2022-11-10T19:28:53.220Z,1.42
2022-11-10T19:31:22.832Z,0.52
2022-11-10T19:33:54.103Z,0.77
2022-11-10T19:36:23.839Z,1.00
2022-11-10T19:38:52.335Z,1.38
2022-11-10T19:41:22.055Z,1.73
2022-11-10T19:43:50.336Z,2.17
2022-11-10T19:46:20.601Z,0.52
2022-11-10T19:48:48.688Z,0.52
2022-11-10T19:51:20.211Z,0.50
2022-11-10T19:53:50.914Z,0.88
2022-11-10T19:56:20.720Z,1.30
2022-11-10T19:58:49.530Z,0.65
2022-11-10T20:01:19.665Z,1.02
2022-11-10T20:03:48.440Z,0.82
2022-11-10T20:06:21.267Z,0.50
2022-11-10T20:08:50.239Z,0.47
2022-11-10T20:11:20.965Z,2.10
2022-11-10T20:13:54.238Z,0.22
2022-11-10T20:16:23.494Z,0.70
2022-11-10T20:18:51.641Z,0.75
2022-11-10T20:21:23.800Z,0.68
2022-11-10T20:23:56.262Z,0.85
2022-11-10T20:26:25.093Z,0.95
2022-11-10T20:28:53.134Z,1.15
2022-11-10T20:31:23.714Z,0.88
2022-11-10T20:33:52.928Z,1.10
2022-11-10T20:36:26.082Z,0.22
2022-11-10T20:38:55.380Z,1.20
2022-11-10T20:41:26.154Z,0.93
2022-11-10T20:43:54.985Z,0.45
2022-11-10T20:46:53.083Z,0.73
2022-11-10T20:49:12.942Z,1.33
2022-11-10T20:51:43.525Z,2.50
2022-11-10T20:54:11.723Z,1.77
2022-11-10T20:56:39.745Z,1.25
2022-11-10T20:59:07.896Z,0.98
2022-11-10T21:01:37.745Z,0.63
2022-11-10T21:04:06.793Z,1.67
2022-11-10T21:06:35.229Z,0.82
2022-11-10T21:09:06.763Z,1.52
2022-11-10T21:11:52.676Z,0.90
2022-11-10T21:14:20.997Z,0.52
2022-11-10T21:16:49.086Z,1.00
2022-11-10T21:19:17.190Z,0.87
2022-11-10T21:21:45.318Z,1.17
2022-11-10T21:24:14.981Z,1.25
2022-11-10T21:26:43.538Z,3.15
2022-11-10T21:29:11.718Z,0.25
2022-11-10T21:31:39.866Z,1.27
2022-11-10T21:34:08.097Z,1.13
2022-11-10T21:36:36.985Z,0.93
2022-11-10T21:39:05.310Z,1.17
2022-11-10T21:41:36.021Z,2.45
2022-11-10T21:44:04.249Z,1.38
2022-11-10T21:46:32.555Z,1.50
2022-11-10T21:49:06.147Z,1.80
2022-11-10T21:51:36.259Z,3.40
2022-11-10T21:54:04.428Z,3.25
2022-11-10T21:56:35.580Z,3.60
2022-11-10T21:59:03.616Z,2.63
2022-11-10T22:01:31.720Z,1.27
2022-11-10T22:03:59.813Z,1.77
2022-11-10T22:06:44.270Z,1.40
2022-11-10T22:09:49.588Z,2.30
2022-11-10T22:12:40.009Z,0.85
2022-11-10T22:15:32.278Z,1.73
2022-11-10T22:18:17.903Z,0.47
2022-11-10T22:20:47.787Z,1.30
2022-11-10T22:23:15.958Z,0.30
2022-11-10T22:25:44.131Z,0.52
2022-11-10T22:28:13.677Z,1.13
2022-11-10T22:30:41.856Z,0.63
2022-11-10T22:33:24.241Z,0.85
2022-11-10T22:35:57.968Z,1.40
2022-11-10T22:38:26.119Z,0.82
2022-11-10T22:41:11.537Z,1.30
2022-11-10T22:43:58.268Z,1.13
2022-11-10T22:46:26.343Z,1.10
2022-11-10T22:48:54.894Z,0.77
2022-11-10T22:51:23.249Z,1.60
2022-11-10T22:53:51.503Z,1.70
